Time;durP1;ratioP1;P1;durP2;ratioP2;P2;SDS_P1;SDS_P2;PMS_P1;PMS_P2;Temp;Humidity;BMP_temperature;BMP_pressure;BME280_temperature;BME280_humidity;BME280_pressure;Samples;Min_cycle;Max_cycle;Signal;HPM_P1;HPM_P2
2022/04/29 00:00:10;;;;;;;6.53;4.78;;;6.70;99.90;;;;;;5091147;28;20502;-53
2022/04/29 00:02:39;;;;;;;6.93;3.78;;;6.70;99.90;;;;;;5082871;28;20100;-50
2022/04/29 00:05:08;;;;;;;7.53;4.07;;;6.70;99.90;;;;;;5091389;28;20040;-52
2022/04/29 00:07:39;;;;;;;5.68;3.65;;;6.70;99.90;;;;;;5091543;28;20044;-50
2022/04/29 00:10:07;;;;;;;4.78;3.38;;;6.70;99.90;;;;;;5081999;28;20064;-49
2022/04/29 00:12:35;;;;;;;6.93;3.47;;;6.70;99.90;;;;;;5091630;28;20063;-51
2022/04/29 00:15:02;;;;;;;4.82;2.90;;;6.70;99.90;;;;;;5091577;28;20052;-52
2022/04/29 00:17:30;;;;;;;;;;;6.70;99.90;;;;;;5072888;28;20105;-51
2022/04/29 00:19:56;;;;;;;5.47;3.30;;;6.70;99.90;;;;;;5074683;28;19928;-51
2022/04/29 00:22:23;;;;;;;5.47;3.58;;;6.70;99.90;;;;;;5071226;28;20044;-51
2022/04/29 00:24:50;;;;;;;5.70;3.45;;;6.70;99.90;;;;;;5076286;28;20404;-51
2022/04/29 00:27:17;;;;;;;4.45;3.20;;;6.70;99.90;;;;;;5090040;28;20056;-51
2022/04/29 00:29:44;;;;;;;6.43;3.03;;;6.70;99.90;;;;;;5090866;28;20046;-51
2022/04/29 00:32:11;;;;;;;5.72;3.42;;;6.70;99.90;;;;;;5072435;28;20055;-53
2022/04/29 00:34:38;;;;;;;7.38;3.38;;;6.70;99.90;;;;;;5072886;28;20492;-53
2022/04/29 00:37:06;;;;;;;5.57;3.38;;;6.70;99.90;;;;;;5073145;28;20070;-51
2022/04/29 00:39:33;;;;;;;4.68;3.17;;;6.60;99.90;;;;;;5071975;28;20048;-49
2022/04/29 00:42:00;;;;;;;8.68;4.30;;;6.60;99.90;;;;;;5083043;28;20064;-49
2022/04/29 00:44:26;;;;;;;4.63;3.42;;;6.60;99.90;;;;;;5069826;28;20060;-51
2022/04/29 00:46:53;;;;;;;8.70;3.90;;;6.50;99.90;;;;;;5070922;28;20037;-49
2022/04/29 00:49:21;;;;;;;8.57;3.30;;;6.50;99.90;;;;;;5059156;28;20055;-49
2022/04/29 00:51:51;;;;;;;9.15;3.47;;;6.50;99.90;;;;;;5074808;28;20048;-50
2022/04/29 00:54:24;;;;;;;4.03;3.10;;;6.40;99.90;;;;;;5071003;28;20504;-52
2022/04/29 00:56:53;;;;;;;6.30;3.40;;;6.40;99.90;;;;;;5070948;28;20385;-51
2022/04/29 00:59:33;;;;;;;4.88;3.50;;;6.40;99.90;;;;;;5076821;28;20040;-49
2022/04/29 01:02:02;;;;;;;6.18;3.75;;;6.40;99.90;;;;;;5086888;28;20044;-53
2022/04/29 01:04:42;;;;;;;4.38;3.33;;;6.40;99.90;;;;;;5072885;28;20044;-51
2022/04/29 01:07:08;;;;;;;5.18;3.42;;;6.30;99.90;;;;;;5089684;28;20511;-49
2022/04/29 01:09:35;;;;;;;6.68;3.63;;;6.30;99.90;;;;;;5080359;28;20093;-49
2022/04/29 01:12:03;;;;;;;5.80;3.72;;;6.30;99.90;;;;;;5072846;28;20101;-49
2022/04/29 01:14:30;;;;;;;4.80;3.38;;;6.20;99.90;;;;;;5069433;28;20036;-50
2022/04/29 01:16:58;;;;;;;5.10;3.63;;;6.20;99.90;;;;;;5070812;28;20169;-53
2022/04/29 01:19:25;;;;;;;5.22;3.58;;;6.20;99.90;;;;;;5079273;28;20032;-52
2022/04/29 01:21:52;;;;;;;5.22;3.58;;;6.20;99.90;;;;;;5091048;28;20483;-53
2022/04/29 01:24:19;;;;;;;5.00;3.20;;;6.10;99.90;;;;;;5091176;28;20106;-51
2022/04/29 01:26:46;;;;;;;4.72;3.42;;;6.10;99.90;;;;;;5081819;28;20094;-50
2022/04/29 01:29:14;;;;;;;7.15;3.67;;;6.10;99.90;;;;;;5086241;28;20048;-52
2022/04/29 01:31:41;;;;;;;4.10;3.58;;;6.10;99.90;;;;;;5070489;28;20056;-50
2022/04/29 01:34:09;;;;;;;6.13;3.35;;;6.00;99.90;;;;;;5069553;28;20053;-50
2022/04/29 01:36:36;;;;;;;;;;;5.90;99.90;;;;;;5080998;28;20052;-50
2022/04/29 01:39:03;;;;;;;4.00;3.50;;;5.90;99.90;;;;;;5072698;28;20265;-50
2022/04/29 01:41:30;;;;;;;5.68;3.35;;;5.90;99.90;;;;;;5090428;28;20063;-50
2022/04/29 01:43:57;;;;;;;5.30;3.70;;;5.90;99.90;;;;;;5085699;28;20036;-50
2022/04/29 01:46:23;;;;;;;5.68;3.45;;;5.90;99.90;;;;;;5072654;28;20489;-51
2022/04/29 01:49:10;;;;;;;5.43;3.65;;;5.90;99.90;;;;;;5074369;28;20413;-52
2022/04/29 01:51:43;;;;;;;4.65;3.42;;;5.80;99.90;;;;;;5057161;28;20406;-50
2022/04/29 01:54:12;;;;;;;4.75;3.50;;;5.90;99.90;;;;;;5079508;28;20036;-50
2022/04/29 01:56:40;;;;;;;10.20;3.95;;;5.90;99.90;;;;;;5067561;28;20048;-49
2022/04/29 01:59:10;;;;;;;6.68;3.60;;;5.90;99.90;;;;;;5075996;28;20040;-51
2022/04/29 02:01:50;;;;;;;7.93;4.45;;;5.90;99.90;;;;;;5092818;28;20044;-50
2022/04/29 02:04:17;;;;;;;9.15;3.50;;;5.90;99.90;;;;;;5083846;28;20489;-51
2022/04/29 02:06:44;;;;;;;5.25;3.65;;;5.80;99.90;;;;;;5092412;28;20527;-54
2022/04/29 02:09:11;;;;;;;5.57;3.67;;;5.80;99.90;;;;;;5092641;28;20130;-51
2022/04/29 02:11:38;;;;;;;6.00;3.72;;;5.70;99.90;;;;;;5092435;28;20075;-51
2022/04/29 02:14:23;;;;;;;3.95;3.30;;;5.70;99.90;;;;;;5085301;28;20050;-51
2022/04/29 02:16:58;;;;;;;6.47;4.18;;;5.60;99.90;;;;;;5075688;28;20048;-49
2022/04/29 02:19:27;;;;;;;4.65;3.42;;;5.60;99.90;;;;;;5075121;28;20127;-52
2022/04/29 02:21:54;;;;;;;4.55;3.53;;;5.60;99.90;;;;;;5074978;28;20067;-50
2022/04/29 02:24:21;;;;;;;;;;;5.60;99.90;;;;;;5072615;28;20073;-54
2022/04/29 02:26:48;;;;;;;5.07;3.65;;;5.60;99.90;;;;;;5073459;28;19924;-52
2022/04/29 02:29:14;;;;;;;5.65;4.10;;;5.50;99.90;;;;;;5074824;28;20473;-50
2022/04/29 02:31:42;;;;;;;6.25;3.80;;;5.50;99.90;;;;;;5080137;28;20036;-51
2022/04/29 02:34:08;;;;;;;7.38;3.90;;;5.50;99.90;;;;;;5072122;28;20102;-49
2022/04/29 02:36:36;;;;;;;;;;;5.50;99.90;;;;;;5089373;28;20053;-49
2022/04/29 02:39:04;;;;;;;6.78;3.85;;;5.40;99.90;;;;;;5074413;28;19927;-50
2022/04/29 02:41:32;;;;;;;6.38;4.03;;;5.40;99.90;;;;;;5074648;28;20093;-50
2022/04/29 02:43:59;;;;;;;7.65;3.50;;;5.40;99.90;;;;;;5092151;28;20072;-50
2022/04/29 02:46:26;;;;;;;6.07;3.83;;;5.40;99.90;;;;;;5092012;28;20451;-52
2022/04/29 02:48:53;;;;;;;6.80;3.45;;;5.40;99.90;;;;;;5085522;28;20298;-50
2022/04/29 02:51:19;;;;;;;4.37;3.00;;;5.40;99.90;;;;;;5073557;28;20048;-49
2022/04/29 02:53:46;;;;;;;5.88;3.80;;;5.30;99.90;;;;;;5092272;28;20313;-50
2022/04/29 02:56:13;;;;;;;6.35;4.07;;;5.30;99.90;;;;;;5088710;28;20071;-52
2022/04/29 02:59:01;;;;;;;6.30;3.90;;;5.20;99.90;;;;;;5054526;28;20544;-52
2022/04/29 03:01:27;;;;;;;5.32;3.75;;;5.20;99.90;;;;;;5071153;28;20048;-50
2022/04/29 03:03:55;;;;;;;7.45;4.13;;;5.20;99.90;;;;;;5077657;28;20131;-54
2022/04/29 03:06:21;;;;;;;4.93;3.55;;;5.20;99.90;;;;;;5072632;28;20052;-50
2022/04/29 03:08:48;;;;;;;6.60;4.43;;;5.20;99.90;;;;;;5118052;22;20074;-58
2022/04/29 03:11:15;;;;;;;7.70;4.30;;;5.20;99.90;;;;;;5113678;27;20141;-58
2022/04/29 03:13:43;;;;;;;7.20;4.55;;;5.20;99.90;;;;;;5133522;27;20043;-56
2022/04/29 03:16:13;;;;;;;10.23;4.97;;;5.20;99.90;;;;;;5115154;27;20051;-56
2022/04/29 03:18:42;;;;;;;9.32;5.35;;;5.20;99.90;;;;;;5108085;27;20512;-58
2022/04/29 03:21:10;;;;;;;8.60;5.47;;;5.10;99.90;;;;;;5107251;27;20503;-56
2022/04/29 03:23:37;;;;;;;8.65;5.63;;;5.10;99.90;;;;;;5103197;28;20040;-57
2022/04/29 03:26:05;;;;;;;5.47;3.97;;;5.10;99.90;;;;;;5111470;28;20047;-56
2022/04/29 03:28:32;;;;;;;6.88;4.47;;;5.10;99.90;;;;;;5100753;28;20324;-55
2022/04/29 03:31:00;;;;;;;7.10;4.53;;;5.10;99.90;;;;;;5110757;27;20043;-55
2022/04/29 03:33:46;;;;;;;6.72;4.55;;;5.10;99.90;;;;;;5115016;27;20053;-58
2022/04/29 03:36:14;;;;;;;8.15;4.65;;;5.00;99.90;;;;;;5114143;27;20111;-57
2022/04/29 03:38:41;;;;;;;7.60;4.40;;;5.00;99.90;;;;;;5108183;27;20158;-57
2022/04/29 03:41:09;;;;;;;7.90;4.50;;;5.00;99.90;;;;;;5114312;27;20039;-54
2022/04/29 03:43:36;;;;;;;7.80;4.45;;;4.90;99.90;;;;;;5133060;27;20510;-56
2022/04/29 03:46:07;;;;;;;7.80;4.78;;;4.80;99.90;;;;;;5097066;27;20130;-57
2022/04/29 03:51:45;;;;;;;9.15;4.47;;;4.70;99.90;;;;;;5114423;27;20507;-55
2022/04/29 03:54:12;;;;;;;7.75;4.57;;;4.70;99.90;;;;;;5103212;28;20046;-55
2022/04/29 03:56:44;;;;;;;9.80;5.35;;;4.70;99.90;;;;;;5108473;27;20047;-53
2022/04/29 03:59:12;;;;;;;7.15;4.75;;;4.70;99.90;;;;;;5114293;27;20043;-57
2022/04/29 04:01:38;;;;;;;9.48;4.65;;;4.70;99.90;;;;;;5107643;28;20040;-55
2022/04/29 04:04:06;;;;;;;6.78;4.95;;;4.60;99.90;;;;;;5121328;27;20066;-57
2022/04/29 04:06:52;;;;;;;8.63;5.40;;;4.60;99.90;;;;;;5114258;27;20043;-58
2022/04/29 04:09:23;;;;;;;9.00;5.63;;;4.60;99.90;;;;;;5112619;27;20047;-57
2022/04/29 04:11:54;;;;;;;9.65;5.63;;;4.60;99.90;;;;;;5098206;28;20058;-56
2022/04/29 04:14:44;;;;;;;10.57;5.45;;;4.60;99.90;;;;;;5112112;28;20411;-58
2022/04/29 04:17:10;;;;;;;10.38;4.55;;;4.50;99.90;;;;;;5109788;27;20395;-57
2022/04/29 04:19:38;;;;;;;9.70;5.07;;;4.50;99.90;;;;;;5105134;27;20035;-58
2022/04/29 04:22:05;;;;;;;9.60;4.50;;;4.50;99.90;;;;;;5132457;27;20411;-57
2022/04/29 04:24:33;;;;;;;10.13;5.07;;;4.60;99.90;;;;;;5112207;28;20051;-57
2022/04/29 04:27:01;;;;;;;10.07;5.43;;;4.60;99.90;;;;;;5101271;28;20043;-55
2022/04/29 04:29:28;;;;;;;10.07;5.80;;;4.50;99.90;;;;;;5093197;28;20044;-57
2022/04/29 04:31:55;;;;;;;8.55;5.18;;;4.50;99.90;;;;;;5093580;28;20035;-53
2022/04/29 04:37:08;;;;;;;11.63;6.95;;;4.50;99.90;;;;;;5103994;28;20097;-56
2022/04/29 04:39:35;;;;;;;10.48;6.68;;;4.60;99.90;;;;;;5093143;28;20040;-57
2022/04/29 04:42:09;;;;;;;13.52;6.50;;;4.60;99.90;;;;;;5093383;28;20043;-57
2022/04/29 04:44:47;;;;;;;12.55;7.30;;;4.60;99.90;;;;;;5097459;28;20040;-56
2022/04/29 04:47:15;;;;;;;13.00;6.78;;;4.70;99.90;;;;;;5110830;28;20521;-57
2022/04/29 04:50:01;;;;;;;11.90;7.47;;;4.80;99.90;;;;;;5126504;28;20078;-57
2022/04/29 04:52:29;;;;;;;12.88;7.07;;;4.80;99.90;;;;;;5125861;28;20099;-54
2022/04/29 04:54:56;;;;;;;11.98;7.32;;;4.90;99.90;;;;;;5110360;28;20039;-55
2022/04/29 04:57:27;;;;;;;9.82;6.72;;;5.30;99.90;;;;;;5113277;28;20043;-55
2022/04/29 04:59:54;;;;;;;12.02;6.78;;;5.30;99.90;;;;;;5109038;28;20042;-57
2022/04/29 05:02:21;;;;;;;13.25;7.32;;;5.30;99.90;;;;;;5114008;28;20042;-57
2022/04/29 05:05:17;;;;;;;14.75;8.52;;;5.20;99.90;;;;;;5131923;28;20509;-57
2022/04/29 05:07:59;;;;;;;13.52;6.55;;;5.30;99.90;;;;;;5113386;28;20043;-57
2022/04/29 05:10:26;;;;;;;11.98;7.43;;;5.20;99.90;;;;;;5092183;28;20098;-57
2022/04/29 05:12:53;;;;;;;;;;;5.30;99.90;;;;;;5100734;28;20130;-56
2022/04/29 05:15:20;;;;;;;15.35;7.90;;;5.20;99.90;;;;;;5132419;28;19920;-57
2022/04/29 05:17:47;;;;;;;13.68;8.00;;;5.30;99.90;;;;;;5131960;27;20506;-56
2022/04/29 05:20:29;;;;;;;16.70;7.88;;;5.30;99.90;;;;;;5110626;28;20039;-56
2022/04/29 05:22:57;;;;;;;13.02;7.45;;;5.40;99.90;;;;;;5104713;27;20035;-58
2022/04/29 05:25:24;;;;;;;10.43;7.35;;;5.50;99.90;;;;;;5117211;27;20039;-57
2022/04/29 05:28:26;;;;;;;15.45;7.20;;;5.50;99.90;;;;;;5051620;28;20099;-58
2022/04/29 05:31:12;;;;;;;12.93;8.05;;;5.60;99.90;;;;;;5110659;27;20065;-57
2022/04/29 05:34:07;;;;;;;12.45;7.22;;;5.70;99.90;;;;;;5114945;28;20101;-58
2022/04/29 05:36:52;;;;;;;11.43;7.30;;;5.80;99.90;;;;;;5121810;27;20065;-56
2022/04/29 05:42:25;;;;;;;11.52;6.72;;;5.90;99.90;;;;;;5108571;27;20043;-57
2022/04/29 05:44:53;;;;;;;13.35;7.07;;;6.00;99.90;;;;;;5135216;27;20051;-58
2022/04/29 05:47:20;;;;;;;15.15;7.18;;;6.20;99.90;;;;;;5116193;27;20082;-57
2022/04/29 05:49:49;;;;;;;15.07;7.32;;;6.20;99.90;;;;;;5100574;28;20047;-58
2022/04/29 05:52:18;;;;;;;12.80;6.97;;;6.30;99.90;;;;;;5115701;27;20070;-58
2022/04/29 05:54:46;;;;;;;;;;;6.30;99.90;;;;;;5117332;27;20162;-57
2022/04/29 05:57:18;;;;;;;11.23;6.63;;;6.40;99.90;;;;;;5116721;27;19993;-57
2022/04/29 05:59:45;;;;;;;14.38;6.57;;;6.60;99.90;;;;;;5092714;28;20043;-57
2022/04/29 06:02:30;;;;;;;9.93;6.80;;;6.70;99.90;;;;;;5114600;28;20617;-58
2022/04/29 06:05:07;;;;;;;10.65;6.35;;;6.80;99.90;;;;;;5115809;27;20486;-58
2022/04/29 06:07:35;;;;;;;12.73;6.72;;;6.80;99.90;;;;;;5103129;28;20114;-58
2022/04/29 06:10:02;;;;;;;10.40;6.45;;;7.00;99.90;;;;;;5110420;27;20466;-57
2022/04/29 06:12:38;;;;;;;16.85;6.90;;;7.00;99.90;;;;;;5133130;27;20067;-55
2022/04/29 06:15:14;;;;;;;9.88;6.63;;;7.00;99.90;;;;;;5106391;27;20065;-56
2022/04/29 06:17:59;;;;;;;11.15;7.15;;;7.10;99.90;;;;;;5128634;27;20058;-57
2022/04/29 06:20:35;;;;;;;14.30;7.18;;;7.10;99.90;;;;;;5129944;27;20039;-58
2022/04/29 06:23:22;;;;;;;18.17;8.10;;;7.30;99.90;;;;;;5111396;27;20132;-58
2022/04/29 06:25:48;;;;;;;12.15;7.43;;;7.50;99.90;;;;;;5101108;28;20035;-58
2022/04/29 06:28:15;;;;;;;10.70;6.80;;;7.70;99.90;;;;;;5095766;28;20089;-57
2022/04/29 06:30:42;;;;;;;12.60;7.38;;;7.80;99.90;;;;;;5100988;27;20053;-58
2022/04/29 06:33:35;;;;;;;14.77;7.50;;;7.90;99.90;;;;;;5122215;27;20384;-57
2022/04/29 06:36:03;;;;;;;12.70;7.65;;;8.00;99.90;;;;;;5110296;27;20454;-57
2022/04/29 06:38:30;;;;;;;11.93;7.75;;;8.20;99.90;;;;;;5132577;27;20126;-57
2022/04/29 06:41:17;;;;;;;11.50;6.80;;;8.30;99.90;;;;;;5119065;27;20075;-58
2022/04/29 06:43:57;;;;;;;16.23;6.85;;;8.40;99.90;;;;;;5129985;27;20047;-58
2022/04/29 06:46:42;;;;;;;7.43;5.60;;;8.40;99.90;;;;;;5134592;27;20054;-57
2022/04/29 06:49:28;;;;;;;8.93;5.90;;;8.50;99.90;;;;;;5126901;27;20075;-57
2022/04/29 06:52:21;;;;;;;9.93;5.93;;;8.60;99.90;;;;;;5101087;27;20058;-58
2022/04/29 06:55:16;;;;;;;11.02;6.53;;;8.80;99.90;;;;;;5115793;27;20077;-58
2022/04/29 06:57:43;;;;;;;8.35;6.13;;;8.90;99.90;;;;;;5112239;27;20054;-58
2022/04/29 07:00:10;;;;;;;9.38;6.32;;;9.00;99.90;;;;;;5102504;28;20089;-58
2022/04/29 07:02:37;;;;;;;;;;;9.10;99.90;;;;;;5112448;28;20039;-58
2022/04/29 07:05:04;;;;;;;12.15;6.32;;;9.10;99.90;;;;;;5113500;28;19927;-58
2022/04/29 07:07:31;;;;;;;12.75;6.10;;;9.30;99.90;;;;;;5109657;28;20453;-59
2022/04/29 07:10:18;;;;;;;10.10;6.10;;;9.60;99.90;;;;;;5116627;27;20090;-58
2022/04/29 07:13:18;;;;;;;8.48;6.47;;;9.60;99.90;;;;;;5093898;28;20172;-58
2022/04/29 07:15:48;;;;;;;8.25;6.22;;;9.80;99.90;;;;;;5094585;28;20048;-58
2022/04/29 07:18:36;;;;;;;13.18;6.22;;;9.70;99.90;;;;;;5117496;27;20047;-57
2022/04/29 07:21:03;;;;;;;7.40;5.95;;;9.80;99.90;;;;;;5114159;27;20043;-56
2022/04/29 07:23:30;;;;;;;9.35;5.95;;;9.90;99.90;;;;;;5115011;27;20047;-58
2022/04/29 07:25:58;;;;;;;;;;;10.00;99.90;;;;;;5106228;28;20032;-57
2022/04/29 07:28:25;;;;;;;11.35;5.88;;;10.20;99.90;;;;;;5106071;27;20298;-58
2022/04/29 07:30:53;;;;;;;8.90;5.03;;;10.40;99.90;;;;;;5113878;27;20057;-58
2022/04/29 07:33:55;;;;;;;7.53;5.45;;;10.30;99.90;;;;;;5118563;27;20043;-58
2022/04/29 07:42:13;;;;;;;10.63;5.45;;;11.00;99.90;;;;;;5112970;27;20130;-58
2022/04/29 07:44:39;;;;;;;12.15;5.68;;;11.10;99.90;;;;;;5112445;28;20039;-58
2022/04/29 07:47:10;;;;;;;8.70;5.03;;;11.10;99.90;;;;;;5112126;27;20039;-57
2022/04/29 07:49:52;;;;;;;6.45;4.63;;;11.30;99.90;;;;;;5114217;27;20092;-59
2022/04/29 07:52:19;;;;;;;8.40;5.18;;;11.40;99.90;;;;;;5110525;28;20051;-56
2022/04/29 07:54:46;;;;;;;9.07;5.40;;;11.30;99.90;;;;;;5108670;27;20054;-58
2022/04/29 07:57:13;;;;;;;8.38;5.13;;;11.50;99.90;;;;;;5114377;27;20043;-58
2022/04/29 07:59:40;;;;;;;6.97;4.70;;;11.60;99.90;;;;;;5116794;27;20377;-59
2022/04/29 08:02:27;;;;;;;6.90;4.40;;;11.80;99.90;;;;;;5111744;28;20407;-58
2022/04/29 08:04:54;;;;;;;6.22;4.43;;;12.00;99.90;;;;;;5112253;28;20050;-58
2022/04/29 08:07:21;;;;;;;7.35;4.95;;;12.00;99.90;;;;;;5111490;28;20038;-58
2022/04/29 08:09:48;;;;;;;5.65;4.25;;;12.20;99.90;;;;;;5105328;27;20503;-58
2022/04/29 08:12:16;;;;;;;8.98;5.18;;;12.30;99.90;;;;;;5132732;27;20035;-57
2022/04/29 08:15:02;;;;;;;10.57;4.95;;;12.30;99.90;;;;;;5133033;27;20074;-58
2022/04/29 08:17:51;;;;;;;7.28;4.35;;;12.60;99.90;;;;;;5106671;28;20503;-58
2022/04/29 08:20:19;;;;;;;6.10;4.70;;;12.80;99.90;;;;;;5097655;27;20049;-57
2022/04/29 08:22:49;;;;;;;6.53;4.60;;;13.10;99.90;;;;;;5113190;27;20031;-59
2022/04/29 08:25:18;;;;;;;8.48;4.55;;;13.20;99.90;;;;;;5107468;28;20040;-59
2022/04/29 08:27:46;;;;;;;7.50;3.95;;;13.40;99.90;;;;;;5087790;28;20054;-57
2022/04/29 08:30:14;;;;;;;5.75;3.65;;;13.50;99.90;;;;;;5093086;28;20076;-57
2022/04/29 08:32:43;;;;;;;9.00;3.20;;;13.60;99.90;;;;;;5093519;28;20039;-58
2022/04/29 08:35:21;;;;;;;7.03;3.53;;;13.70;99.90;;;;;;5108692;28;20051;-57
2022/04/29 08:37:49;;;;;;;;;;;13.90;99.90;;;;;;5110900;28;20047;-58
2022/04/29 08:40:17;;;;;;;10.98;4.05;;;14.00;99.90;;;;;;5110007;28;19923;-58
2022/04/29 08:42:44;;;;;;;4.70;3.40;;;14.10;99.90;;;;;;5106768;28;20043;-58
2022/04/29 08:45:14;;;;;;;5.88;3.10;;;14.30;99.90;;;;;;5102986;28;20135;-58
2022/04/29 08:47:59;;;;;;;3.30;2.92;;;14.30;99.90;;;;;;5132638;27;20072;-58
2022/04/29 08:50:32;;;;;;;6.75;2.95;;;14.50;99.90;;;;;;5113351;28;20432;-58
2022/04/29 08:52:59;;;;;;;5.20;3.65;;;14.70;99.90;;;;;;5117669;28;20043;-59
2022/04/29 09:01:05;;;;;;;6.68;3.30;;;14.50;99.90;;;;;;5118016;27;20622;-59
2022/04/29 09:03:32;;;;;;;4.50;3.58;;;14.80;99.90;;;;;;5115510;28;20039;-58
2022/04/29 09:05:59;;;;;;;6.75;3.78;;;15.00;99.90;;;;;;5115692;28;20787;-58
2022/04/29 09:08:27;;;;;;;4.80;3.63;;;15.20;99.90;;;;;;5126251;22;20093;-51
2022/04/29 09:11:00;;;;;;;5.82;3.90;;;15.20;99.60;;;;;;5104208;28;20078;-50
2022/04/29 09:13:37;;;;;;;8.20;4.10;;;15.20;99.20;;;;;;5105244;28;20070;-49
2022/04/29 09:16:06;;;;;;;6.70;3.95;;;15.30;99.50;;;;;;5105181;28;20032;-50
2022/04/29 09:18:37;;;;;;;6.22;4.18;;;15.40;98.00;;;;;;5076693;28;20048;-55
2022/04/29 09:21:11;;;;;;;6.30;3.75;;;15.60;99.40;;;;;;5094362;28;20047;-55
2022/04/29 09:24:03;;;;;;;5.75;3.55;;;15.70;99.20;;;;;;5104650;28;20081;-51
2022/04/29 09:27:07;;;;;;;8.38;4.25;;;15.80;99.90;;;;;;5094711;28;20055;-52
2022/04/29 09:29:50;;;;;;;7.22;4.07;;;16.10;97.50;;;;;;5076701;28;20044;-48
2022/04/29 09:32:50;;;;;;;5.38;3.80;;;16.10;96.80;;;;;;5099304;28;20127;-50
2022/04/29 09:35:55;;;;;;;12.50;4.03;;;15.90;97.60;;;;;;5114692;28;20054;-49
2022/04/29 09:41:08;;;;;;;7.15;3.50;;;16.20;96.00;;;;;;5105869;28;19981;-50
2022/04/29 09:43:35;;;;;;;;;;;16.40;96.40;;;;;;5115304;28;20044;-52
2022/04/29 09:46:12;;;;;;;7.00;3.35;;;16.60;95.80;;;;;;5114914;28;20010;-50
2022/04/29 09:48:57;;;;;;;;;;;16.70;96.60;;;;;;5109847;28;20036;-49
2022/04/29 09:51:47;;;;;;;7.40;2.95;;;16.90;94.70;;;;;;5113734;28;19968;-52
2022/04/29 09:54:20;;;;;;;5.00;3.10;;;16.70;95.70;;;;;;5114778;28;20043;-51
2022/04/29 09:57:13;;;;;;;5.90;3.10;;;16.70;95.60;;;;;;5113846;28;20377;-50
2022/04/29 09:59:40;;;;;;;4.65;2.78;;;16.70;93.70;;;;;;5107557;28;20040;-51
2022/04/29 10:02:09;;;;;;;6.30;3.70;;;16.40;93.00;;;;;;5114447;28;20036;-53
2022/04/29 10:04:40;;;;;;;5.65;3.30;;;16.30;93.70;;;;;;5113596;28;20085;-50
2022/04/29 10:07:10;;;;;;;6.00;3.20;;;16.50;94.50;;;;;;5105647;28;20046;-52
2022/04/29 10:09:40;;;;;;;4.88;2.92;;;16.70;94.50;;;;;;5095432;28;20035;-51
2022/04/29 10:12:11;;;;;;;4.55;3.13;;;16.90;95.10;;;;;;5113979;28;20436;-53
2022/04/29 10:14:43;;;;;;;6.00;3.15;;;17.00;93.90;;;;;;5101000;28;20079;-51
2022/04/29 10:23:10;;;;;;;3.17;2.58;;;17.50;92.70;;;;;;5105568;28;20043;-53
2022/04/29 10:25:42;;;;;;;3.15;2.60;;;17.70;91.80;;;;;;5114039;28;20039;-51
2022/04/29 10:28:09;;;;;;;2.70;2.33;;;17.80;89.60;;;;;;5111471;28;20561;-54
2022/04/29 10:30:38;;;;;;;7.22;2.42;;;17.80;89.20;;;;;;5104121;28;20046;-55
2022/04/29 10:33:09;;;;;;;3.88;2.60;;;18.00;92.00;;;;;;5104125;28;20043;-52
2022/04/29 10:35:39;;;;;;;3.67;2.65;;;18.10;91.80;;;;;;5101319;28;20040;-51
2022/04/29 10:38:32;;;;;;;3.70;2.53;;;18.40;90.90;;;;;;5105800;28;20449;-54
2022/04/29 10:41:18;;;;;;;4.20;2.38;;;18.40;86.20;;;;;;5104250;28;20032;-55
2022/04/29 10:44:03;;;;;;;4.75;1.95;;;18.60;85.20;;;;;;5104213;28;20039;-51
2022/04/29 10:46:37;;;;;;;3.35;2.40;;;18.70;85.70;;;;;;5105852;28;20044;-52
2022/04/29 10:49:30;;;;;;;7.03;2.33;;;18.90;82.20;;;;;;5051162;28;20120;-55
2022/04/29 10:52:27;;;;;;;3.65;2.20;;;18.70;80.90;;;;;;5106680;28;20074;-51
2022/04/29 10:55:23;;;;;;;3.17;2.35;;;19.20;84.00;;;;;;5093065;28;20188;-54
2022/04/29 10:58:23;;;;;;;2.63;2.42;;;19.50;80.90;;;;;;5105635;28;20158;-53
2022/04/29 11:01:14;;;;;;;4.82;2.30;;;19.50;78.90;;;;;;5103703;28;20067;-53
2022/04/29 11:03:44;;;;;;;3.25;2.70;;;19.60;84.20;;;;;;5101617;28;20454;-52
2022/04/29 11:06:12;;;;;;;4.28;2.83;;;19.10;83.10;;;;;;5104365;28;20032;-54
2022/04/29 11:08:40;;;;;;;4.43;2.28;;;18.50;79.00;;;;;;5101236;28;20096;-55
2022/04/29 11:11:08;;;;;;;3.88;1.98;;;18.20;79.70;;;;;;5102616;28;20449;-53
2022/04/29 11:14:02;;;;;;;4.20;2.53;;;18.30;78.80;;;;;;5105373;28;20128;-53
2022/04/29 11:16:52;;;;;;;3.03;2.45;;;18.10;80.00;;;;;;5091093;28;20048;-54
2022/04/29 11:19:47;;;;;;;3.53;2.67;;;18.10;83.80;;;;;;5111959;28;20102;-52
2022/04/29 11:25:05;;;;;;;3.92;2.45;;;18.30;83.50;;;;;;5103015;28;20438;-53
2022/04/29 11:27:50;;;;;;;3.35;2.40;;;18.40;81.30;;;;;;5091186;28;20035;-52
2022/04/29 11:30:24;;;;;;;;;;;18.50;85.60;;;;;;5091828;28;20047;-53
2022/04/29 11:32:54;;;;;;;3.85;2.10;;;18.60;82.10;;;;;;5103315;28;19920;-51
2022/04/29 11:35:24;;;;;;;5.20;2.55;;;18.60;85.30;;;;;;5101152;28;20522;-55
2022/04/29 11:37:52;;;;;;;2.40;2.03;;;18.70;80.20;;;;;;5101407;28;20512;-51
2022/04/29 11:40:19;;;;;;;5.47;2.40;;;18.70;80.70;;;;;;5105474;28;20047;-51
2022/04/29 11:42:50;;;;;;;4.43;2.67;;;18.80;84.70;;;;;;5103239;28;20454;-51
2022/04/29 11:45:20;;;;;;;2.38;2.00;;;18.90;81.40;;;;;;5102539;28;20055;-53
2022/04/29 11:47:50;;;;;;;2.50;2.30;;;18.90;79.90;;;;;;5099892;28;20449;-53
2022/04/29 11:50:30;;;;;;;3.22;2.10;;;19.00;78.50;;;;;;5099600;28;20043;-53
2022/04/29 11:53:04;;;;;;;2.22;2.00;;;19.00;77.00;;;;;;5102363;28;20488;-54
2022/04/29 11:55:30;;;;;;;6.38;2.40;;;19.20;78.40;;;;;;5104966;28;20051;-52
2022/04/29 11:57:59;;;;;;;5.13;2.55;;;19.30;79.10;;;;;;5084347;28;20085;-52
2022/04/29 12:00:28;;;;;;;2.65;2.10;;;19.40;82.90;;;;;;5096771;28;20086;-52
2022/04/29 12:02:57;;;;;;;2.38;1.88;;;19.60;81.70;;;;;;5091756;28;20059;-52
2022/04/29 12:05:26;;;;;;;3.17;1.95;;;19.70;77.10;;;;;;5106408;28;20468;-54
2022/04/29 12:07:54;;;;;;;5.68;2.42;;;19.60;77.10;;;;;;5073403;28;20040;-52
2022/04/29 12:10:43;;;;;;;6.63;2.42;;;19.50;80.90;;;;;;5073375;28;20412;-52
2022/04/29 12:13:10;;;;;;;2.97;2.10;;;19.50;78.50;;;;;;5100835;28;20100;-51
2022/04/29 12:15:41;;;;;;;4.38;2.45;;;19.40;76.30;;;;;;5084975;28;20047;-55
2022/04/29 12:18:13;;;;;;;2.65;2.08;;;19.50;77.50;;;;;;5094067;28;20054;-52
2022/04/29 12:20:58;;;;;;;4.05;1.80;;;19.50;76.70;;;;;;5072870;28;20040;-55
2022/04/29 12:23:25;;;;;;;4.95;2.20;;;19.60;74.50;;;;;;5101005;28;20523;-55
2022/04/29 12:25:54;;;;;;;3.38;2.33;;;19.70;77.30;;;;;;5103437;28;20032;-52
2022/04/29 12:28:23;;;;;;;3.75;2.10;;;19.80;76.80;;;;;;5093159;28;20524;-52
2022/04/29 12:36:58;;;;;;;2.72;2.08;;;19.80;77.80;;;;;;5073406;28;20101;-55
2022/04/29 12:39:40;;;;;;;5.00;2.10;;;19.80;76.50;;;;;;5073068;28;20290;-54
2022/04/29 12:42:18;;;;;;;7.03;2.30;;;19.80;73.80;;;;;;5107835;28;20039;-53
2022/04/29 12:45:07;;;;;;;4.68;2.40;;;19.70;75.70;;;;;;5073593;28;20047;-56
2022/04/29 12:48:07;;;;;;;6.00;2.20;;;19.50;75.10;;;;;;5091662;28;20097;-55
2022/04/29 12:50:42;;;;;;;26.70;2.55;;;19.40;74.10;;;;;;5085742;28;20050;-53
2022/04/29 12:53:19;;;;;;;3.10;1.88;;;19.40;73.50;;;;;;5088933;28;20135;-55
2022/04/29 12:55:46;;;;;;;5.47;2.13;;;19.60;75.40;;;;;;5091469;28;20093;-54
2022/04/29 12:58:21;;;;;;;6.82;2.60;;;19.60;78.20;;;;;;5107944;28;20065;-54
2022/04/29 13:00:57;;;;;;;5.40;1.80;;;19.50;76.00;;;;;;5105640;28;20043;-52
2022/04/29 13:03:27;;;;;;;6.30;2.07;;;19.40;76.70;;;;;;5093319;28;20059;-52
2022/04/29 13:06:14;;;;;;;6.75;2.67;;;19.40;74.90;;;;;;5059100;28;20480;-55
2022/04/29 13:08:41;;;;;;;3.00;2.20;;;19.50;76.30;;;;;;5102867;28;20023;-51
2022/04/29 13:11:15;;;;;;;5.03;2.20;;;19.60;73.80;;;;;;5111248;28;20294;-53
2022/04/29 13:13:41;;;;;;;3.30;2.10;;;19.60;74.80;;;;;;5110662;28;20036;-53
2022/04/29 13:16:09;;;;;;;3.25;2.10;;;19.50;72.90;;;;;;5083771;28;20056;-51
2022/04/29 13:18:38;;;;;;;4.13;2.17;;;19.40;74.10;;;;;;5089857;28;20427;-52
2022/04/29 13:21:07;;;;;;;5.28;1.92;;;19.40;73.50;;;;;;5101040;28;20028;-54
2022/04/29 13:23:38;;;;;;;4.40;1.95;;;19.40;75.10;;;;;;5082974;28;20093;-52
2022/04/29 13:26:13;;;;;;;2.40;2.15;;;19.40;73.10;;;;;;5083642;28;20051;-52
2022/04/29 13:28:42;;;;;;;4.18;2.42;;;19.40;74.70;;;;;;5100619;28;20043;-53
2022/04/29 13:31:09;;;;;;;2.30;1.90;;;19.40;75.40;;;;;;5099270;28;20040;-54
2022/04/29 13:33:36;;;;;;;;;;;19.50;74.90;;;;;;5105866;28;20036;-52
2022/04/29 13:36:05;;;;;;;4.95;2.03;;;19.50;74.10;;;;;;5101224;28;19923;-54
2022/04/29 13:38:32;;;;;;;5.25;1.95;;;19.50;75.00;;;;;;5099747;28;20081;-52
2022/04/29 13:41:00;;;;;;;3.40;2.33;;;19.60;75.90;;;;;;5089317;28;20635;-51
2022/04/29 13:43:27;;;;;;;2.42;2.15;;;19.60;73.30;;;;;;5094506;28;20519;-52
2022/04/29 13:46:14;;;;;;;2.72;1.80;;;19.40;74.30;;;;;;5094706;28;20044;-53
2022/04/29 13:48:42;;;;;;;2.53;1.92;;;19.40;71.80;;;;;;5103869;28;20032;-52
2022/04/29 13:51:08;;;;;;;2.42;2.20;;;19.30;73.70;;;;;;5105568;28;20035;-53
2022/04/29 13:53:37;;;;;;;3.15;2.08;;;19.20;75.70;;;;;;5114825;28;20047;-51
2022/04/29 13:56:10;;;;;;;3.25;2.20;;;19.30;72.30;;;;;;5113703;28;20051;-56
2022/04/29 13:58:36;;;;;;;6.00;2.17;;;19.40;75.80;;;;;;5101545;28;20047;-51